Main page
METAR-TAF:

METAR-TAF

Airports :

Logan County Airport

Lincoln, Illinois, United States

latitude: 40-09-31N, longitude: 089-20-06W, elevation: 597 ft

Current weather observation

The report was made 23 minutes ago, at 20:55 UTC
Wind 9 mph from the North with gusts up to 18 mph
Temperature 27°F
Humidity 36%
Pressure 30.69 in. Hg
Visibility: 10 miles
Clear sky

METAR: KAAA 202055Z AUTO 36008G16KT 10SM CLR M03/M16 A3069 RMK AO2 T10271164

Time: 15:18 (21:18 UTC)


TAF: missing

Weather observations and forecasts of more than 4000 airports (METAR and TAF reports).

The available stations are represented by yellow and red dots on the map.

Hover mouse over dot to see the name of the station.

Then click to see weather observations and forecasts.

To change the map : click on the green buttons with a black cross to zoom in, on the green button with a dash to zoom out, or on the green arrows for adjacent maps.


METAR-TAF: